Time;durP1;ratioP1;P1;durP2;ratioP2;P2;SDS_P1;SDS_P2;PMS_P1;PMS_P2;Temp;Humidity;BMP_temperature;BMP_pressure;BME280_temperature;BME280_humidity;BME280_pressure;Samples;Min_cycle;Max_cycle;Signal;HPM_P1;HPM_P2
2023/05/14 00:00:14;;;;;;;21.75;13.80;;;11.80;99.90;;;;;;5032745;28;20041;-64
2023/05/14 00:02:40;;;;;;;19.42;13.80;;;11.70;99.90;;;;;;5032680;28;20047;-63
2023/05/14 00:05:06;;;;;;;24.33;13.45;;;11.70;99.90;;;;;;5069030;28;20041;-63
2023/05/14 00:07:32;;;;;;;20.80;14.13;;;11.70;99.90;;;;;;5035319;28;20044;-63
2023/05/14 00:09:58;;;;;;;19.38;13.60;;;11.70;99.90;;;;;;5031210;28;20068;-63
2023/05/14 00:12:25;;;;;;;18.98;13.68;;;11.70;99.90;;;;;;5033283;28;21796;-63
2023/05/14 00:14:51;;;;;;;27.52;14.73;;;11.60;99.90;;;;;;5038804;28;20045;-63
2023/05/14 00:17:16;;;;;;;18.80;13.48;;;11.60;99.90;;;;;;5034815;28;20045;-63
2023/05/14 00:19:42;;;;;;;27.88;14.25;;;11.60;99.90;;;;;;5034867;28;20053;-63
2023/05/14 00:22:08;;;;;;;23.52;13.60;;;11.50;99.90;;;;;;5034194;28;20044;-63
2023/05/14 00:24:34;;;;;;;22.58;13.60;;;11.50;99.90;;;;;;5030764;28;20037;-62
2023/05/14 00:27:00;;;;;;;19.83;13.63;;;11.50;99.90;;;;;;5033196;28;20033;-62
2023/05/14 00:29:26;;;;;;;22.50;13.45;;;11.40;99.90;;;;;;5036022;28;20086;-62
2023/05/14 00:31:51;;;;;;;23.55;13.30;;;11.40;99.90;;;;;;5033236;28;20045;-63
2023/05/14 00:34:17;;;;;;;23.05;13.48;;;11.40;99.90;;;;;;5050088;28;20037;-62
2023/05/14 00:36:42;;;;;;;20.83;13.32;;;11.30;99.90;;;;;;5041919;28;20041;-62
2023/05/14 00:39:09;;;;;;;22.27;14.00;;;11.30;99.90;;;;;;5065415;28;20102;-63
2023/05/14 00:41:34;;;;;;;26.13;13.60;;;11.30;99.90;;;;;;5036690;28;20083;-63
2023/05/14 00:44:00;;;;;;;19.35;13.55;;;11.20;99.90;;;;;;5045170;28;20484;-63
2023/05/14 00:46:27;;;;;;;21.70;13.90;;;11.20;99.90;;;;;;5040132;28;20052;-63
2023/05/14 00:48:53;;;;;;;22.40;13.77;;;11.20;99.90;;;;;;5040131;28;20455;-62
2023/05/14 00:51:19;;;;;;;20.42;13.43;;;11.20;99.90;;;;;;5040090;28;20363;-62
2023/05/14 00:53:45;;;;;;;23.92;13.57;;;11.10;99.90;;;;;;5041758;28;20092;-62
2023/05/14 00:56:12;;;;;;;21.30;14.38;;;11.10;99.90;;;;;;5041798;28;20045;-62
2023/05/14 00:58:38;;;;;;;24.30;14.40;;;11.00;99.90;;;;;;5036389;28;20053;-62
2023/05/14 01:01:03;;;;;;;22.25;13.70;;;11.00;99.90;;;;;;5041280;28;20396;-63
2023/05/14 01:03:30;;;;;;;21.27;13.35;;;11.00;99.90;;;;;;5056818;28;20059;-62
2023/05/14 01:06:17;;;;;;;23.55;15.13;;;10.90;99.90;;;;;;5038714;28;20611;-62
2023/05/14 01:09:02;;;;;;;24.90;15.30;;;11.00;99.90;;;;;;5037934;28;20052;-62
2023/05/14 01:11:41;;;;;;;28.42;14.38;;;10.90;99.90;;;;;;5045240;28;20048;-62
2023/05/14 01:14:18;;;;;;;22.83;14.93;;;10.90;99.90;;;;;;5059975;28;20041;-63
2023/05/14 01:16:46;;;;;;;26.63;14.77;;;10.80;99.90;;;;;;5043939;28;20488;-62
2023/05/14 01:19:40;;;;;;;23.48;14.70;;;10.80;99.90;;;;;;5042442;28;20037;-63
2023/05/14 01:22:06;;;;;;;22.35;14.30;;;10.70;99.90;;;;;;5045488;28;20045;-63
2023/05/14 01:24:32;;;;;;;22.90;15.10;;;10.70;99.90;;;;;;5044116;28;20583;-63
2023/05/14 01:27:08;;;;;;;22.05;14.27;;;10.60;99.90;;;;;;5041984;28;20044;-63
2023/05/14 01:29:38;;;;;;;27.73;14.85;;;10.60;99.90;;;;;;5044947;28;20043;-62
2023/05/14 01:32:06;;;;;;;25.80;16.10;;;10.60;99.90;;;;;;5044998;28;20040;-63
2023/05/14 01:34:34;;;;;;;25.63;15.15;;;10.60;99.90;;;;;;5029237;28;20059;-62
2023/05/14 01:37:00;;;;;;;25.77;15.43;;;10.50;99.90;;;;;;5042571;28;20124;-63
2023/05/14 01:39:27;;;;;;;21.63;14.13;;;10.50;99.90;;;;;;5040577;28;20127;-63
2023/05/14 01:41:54;;;;;;;25.80;15.60;;;10.50;99.90;;;;;;5044773;28;20041;-63
2023/05/14 01:44:20;;;;;;;25.90;15.70;;;10.50;99.90;;;;;;5043621;28;20442;-62
2023/05/14 01:46:46;;;;;;;28.42;15.07;;;10.50;99.90;;;;;;5041706;28;20041;-64
2023/05/14 01:49:11;;;;;;;24.92;15.00;;;10.50;99.90;;;;;;5045679;28;20067;-63
2023/05/14 01:51:37;;;;;;;26.10;15.90;;;10.50;99.90;;;;;;5045806;28;20037;-63
2023/05/14 01:54:03;;;;;;;26.85;15.18;;;10.50;99.90;;;;;;5044980;28;20059;-63
2023/05/14 01:56:28;;;;;;;24.83;15.32;;;10.50;99.90;;;;;;5040286;28;20107;-63
2023/05/14 01:58:55;;;;;;;27.52;15.07;;;10.40;99.90;;;;;;5043475;28;20544;-63
2023/05/14 02:01:21;;;;;;;25.10;15.70;;;10.40;99.90;;;;;;5040536;28;20049;-63
2023/05/14 02:03:47;;;;;;;22.35;14.60;;;10.40;99.90;;;;;;5044978;28;20384;-63
2023/05/14 02:06:12;;;;;;;22.52;14.55;;;10.30;99.90;;;;;;5044175;28;20029;-63
2023/05/14 02:08:38;;;;;;;25.73;14.70;;;10.30;99.90;;;;;;5042182;28;20518;-63
2023/05/14 02:11:04;;;;;;;26.73;15.63;;;10.30;99.90;;;;;;5041669;28;20484;-63
2023/05/14 02:13:29;;;;;;;25.02;14.88;;;10.30;99.90;;;;;;5040697;28;20048;-63
2023/05/14 02:15:55;;;;;;;26.83;16.30;;;10.20;99.90;;;;;;5043040;28;20029;-63
2023/05/14 02:18:20;;;;;;;24.13;15.82;;;10.20;99.90;;;;;;5039819;28;20072;-63
2023/05/14 02:20:46;;;;;;;27.40;16.10;;;10.20;99.90;;;;;;5043528;28;20036;-63
2023/05/14 02:23:12;;;;;;;24.63;15.82;;;10.20;99.90;;;;;;5039350;28;20539;-63
2023/05/14 02:25:37;;;;;;;28.70;16.10;;;10.20;99.90;;;;;;5042404;28;20049;-63
2023/05/14 02:28:03;;;;;;;24.80;15.75;;;10.10;99.90;;;;;;5038517;28;20029;-63
2023/05/14 02:30:30;;;;;;;24.98;14.75;;;10.10;99.90;;;;;;5042546;28;20111;-63
2023/05/14 02:32:56;;;;;;;27.23;15.43;;;10.10;99.90;;;;;;5044088;28;20367;-62
2023/05/14 02:35:21;;;;;;;26.58;14.95;;;10.10;99.90;;;;;;5044501;28;20080;-62
2023/05/14 02:37:47;;;;;;;28.20;15.65;;;10.00;99.90;;;;;;5040242;28;20132;-62
2023/05/14 02:40:13;;;;;;;23.58;15.60;;;10.00;99.90;;;;;;5035974;28;20095;-62
2023/05/14 02:42:38;;;;;;;22.27;13.98;;;10.00;99.90;;;;;;5037743;28;20052;-62
2023/05/14 02:45:05;;;;;;;21.75;12.95;;;10.00;99.90;;;;;;5034598;28;20051;-63
2023/05/14 02:47:30;;;;;;;20.80;11.05;;;10.00;99.90;;;;;;5042207;28;20055;-63
2023/05/14 02:49:56;;;;;;;23.75;13.45;;;9.90;99.90;;;;;;5037855;28;20395;-62
2023/05/14 02:52:21;;;;;;;21.88;13.05;;;9.80;99.90;;;;;;5035246;28;20127;-62
2023/05/14 02:54:47;;;;;;;20.80;13.85;;;9.70;99.90;;;;;;5036728;28;20757;-62
2023/05/14 02:57:12;;;;;;;24.45;14.07;;;9.50;99.90;;;;;;5041898;28;20041;-62
2023/05/14 02:59:38;;;;;;;22.00;13.52;;;9.40;99.90;;;;;;5042913;28;20098;-61
2023/05/14 03:02:04;;;;;;;21.50;13.00;;;9.40;99.90;;;;;;5041800;28;20056;-62
2023/05/14 03:04:29;;;;;;;21.25;12.57;;;9.40;99.90;;;;;;5041898;28;20055;-62
2023/05/14 03:06:55;;;;;;;24.27;14.20;;;9.30;99.90;;;;;;5039379;28;20041;-61
2023/05/14 03:09:21;;;;;;;27.58;15.05;;;9.30;99.90;;;;;;5043428;28;20038;-62
2023/05/14 03:11:46;;;;;;;22.88;14.80;;;9.20;99.90;;;;;;5038538;28;20045;-62
2023/05/14 03:14:12;;;;;;;22.75;14.02;;;9.20;99.90;;;;;;5042197;28;20082;-62
2023/05/14 03:16:38;;;;;;;25.33;14.05;;;9.20;99.90;;;;;;5036904;28;20078;-62
2023/05/14 03:19:04;;;;;;;22.45;14.05;;;9.20;99.90;;;;;;5037663;28;20603;-62
2023/05/14 03:21:30;;;;;;;25.17;13.80;;;9.30;99.90;;;;;;5032654;28;20495;-62
2023/05/14 03:23:56;;;;;;;25.55;14.25;;;9.20;99.90;;;;;;5074212;28;20040;-62
2023/05/14 03:26:21;;;;;;;22.70;12.68;;;9.30;99.90;;;;;;5048615;28;20037;-62
2023/05/14 03:28:47;;;;;;;24.27;14.88;;;9.30;99.90;;;;;;5042105;28;20040;-62
2023/05/14 03:31:13;;;;;;;21.55;14.25;;;9.30;99.90;;;;;;5047164;28;20033;-62
2023/05/14 03:33:39;;;;;;;26.23;13.93;;;9.30;99.90;;;;;;5043090;28;20082;-63
2023/05/14 03:36:05;;;;;;;24.50;13.88;;;9.30;99.90;;;;;;5040969;28;20399;-62
2023/05/14 03:38:30;;;;;;;24.70;14.63;;;9.40;99.90;;;;;;5042320;28;20104;-63
2023/05/14 03:40:56;;;;;;;23.08;13.02;;;9.40;99.90;;;;;;5042096;28;20503;-63
2023/05/14 03:43:23;;;;;;;22.75;13.80;;;9.40;99.90;;;;;;5043244;28;20047;-62
2023/05/14 03:45:51;;;;;;;26.13;14.82;;;9.40;99.90;;;;;;5040821;28;20044;-62
2023/05/14 03:48:17;;;;;;;24.80;13.98;;;9.40;99.90;;;;;;5042894;28;20045;-63
2023/05/14 03:50:43;;;;;;;24.13;14.35;;;9.40;99.90;;;;;;5040887;28;20123;-63
2023/05/14 03:53:09;;;;;;;24.33;13.85;;;9.40;99.90;;;;;;5043642;28;20175;-62
2023/05/14 03:55:35;;;;;;;22.60;13.77;;;9.40;99.90;;;;;;5044599;28;20045;-62
2023/05/14 03:58:01;;;;;;;22.88;13.55;;;9.40;99.90;;;;;;5032759;28;20045;-62
2023/05/14 04:00:27;;;;;;;24.52;14.27;;;9.40;99.90;;;;;;5037892;28;20047;-62
2023/05/14 04:02:53;;;;;;;23.98;14.05;;;9.40;99.90;;;;;;5042348;28;20649;-62
2023/05/14 04:05:18;;;;;;;22.73;13.60;;;9.40;99.90;;;;;;5045664;28;20036;-62
2023/05/14 04:07:45;;;;;;;25.00;14.68;;;9.50;99.90;;;;;;5042235;28;20110;-63
2023/05/14 04:10:11;;;;;;;23.08;13.93;;;9.50;99.90;;;;;;5043079;28;20047;-62
2023/05/14 04:12:37;;;;;;;24.50;12.85;;;9.50;99.90;;;;;;5033569;28;20128;-62
2023/05/14 04:15:03;;;;;;;20.88;13.65;;;9.50;99.90;;;;;;5044418;28;20152;-62
2023/05/14 04:17:28;;;;;;;19.65;13.50;;;9.60;99.90;;;;;;5046560;28;20048;-62
2023/05/14 04:19:54;;;;;;;21.25;12.55;;;9.60;99.90;;;;;;5045107;28;20476;-62
2023/05/14 04:22:19;;;;;;;22.98;12.48;;;9.60;99.90;;;;;;5043338;28;20498;-62
2023/05/14 04:24:45;;;;;;;18.00;12.13;;;9.60;99.90;;;;;;5045779;28;20037;-63
2023/05/14 04:27:10;;;;;;;18.17;12.02;;;9.50;99.90;;;;;;5037915;28;20033;-63
2023/05/14 04:29:36;;;;;;;18.77;11.68;;;9.50;99.90;;;;;;5038964;28;20036;-63
2023/05/14 04:32:01;;;;;;;21.05;12.70;;;9.50;99.90;;;;;;5043851;28;20066;-63
2023/05/14 04:34:27;;;;;;;18.80;12.15;;;9.40;99.90;;;;;;5040989;28;20049;-63
2023/05/14 04:36:52;;;;;;;18.95;11.60;;;9.50;99.90;;;;;;5041575;28;20492;-62
2023/05/14 04:39:18;;;;;;;22.10;12.38;;;9.50;99.90;;;;;;5039099;28;20369;-62
2023/05/14 04:41:43;;;;;;;21.10;11.50;;;9.50;99.90;;;;;;5034342;28;20488;-63
2023/05/14 04:44:11;;;;;;;22.15;12.05;;;9.50;99.90;;;;;;5042310;28;20480;-63
2023/05/14 04:46:36;;;;;;;20.90;11.93;;;9.50;99.90;;;;;;5046038;28;20125;-63
2023/05/14 04:49:02;;;;;;;19.75;10.32;;;9.60;99.90;;;;;;5044986;28;20037;-63
2023/05/14 04:51:27;;;;;;;21.05;12.80;;;9.60;99.90;;;;;;5038062;28;20050;-62
2023/05/14 04:53:53;;;;;;;23.45;12.48;;;9.70;99.90;;;;;;5043325;28;20029;-63
2023/05/14 04:56:18;;;;;;;22.48;12.18;;;9.70;99.90;;;;;;5039268;28;20100;-62
2023/05/14 04:58:44;;;;;;;22.60;12.02;;;9.70;99.90;;;;;;5041146;28;20036;-62
2023/05/14 05:01:09;;;;;;;25.80;13.18;;;9.80;99.90;;;;;;5042123;28;20041;-63
2023/05/14 05:03:35;;;;;;;25.90;13.55;;;9.90;99.90;;;;;;5038453;28;20124;-64
2023/05/14 05:06:00;;;;;;;20.77;12.02;;;10.00;99.90;;;;;;5038894;28;20166;-65
2023/05/14 05:08:26;;;;;;;26.08;13.80;;;10.10;99.90;;;;;;5045403;28;20041;-63
2023/05/14 05:10:51;;;;;;;29.48;13.70;;;10.20;99.90;;;;;;5038550;28;20384;-62
2023/05/14 05:13:17;;;;;;;23.58;10.73;;;10.20;99.90;;;;;;5035748;28;20441;-63
2023/05/14 05:15:43;;;;;;;23.33;13.15;;;10.30;99.90;;;;;;5039854;28;20471;-61
2023/05/14 05:18:08;;;;;;;28.20;13.77;;;10.40;99.90;;;;;;5037871;28;20033;-62
2023/05/14 05:20:34;;;;;;;23.23;13.20;;;10.40;99.90;;;;;;5039385;28;20073;-63
2023/05/14 05:22:59;;;;;;;33.45;16.20;;;10.50;99.90;;;;;;5051939;28;20130;-62
2023/05/14 05:25:26;;;;;;;29.15;15.27;;;10.50;99.90;;;;;;5027689;28;20506;-61
2023/05/14 05:27:51;;;;;;;32.60;14.95;;;10.50;99.90;;;;;;5038529;28;20045;-62
2023/05/14 05:30:17;;;;;;;31.02;15.60;;;10.60;99.90;;;;;;5076682;28;20029;-62
2023/05/14 05:32:43;;;;;;;31.75;15.88;;;10.70;99.90;;;;;;5022194;28;20041;-63
2023/05/14 05:35:08;;;;;;;28.88;15.25;;;10.80;99.90;;;;;;5039791;28;20037;-62
2023/05/14 05:37:34;;;;;;;33.65;16.42;;;10.80;99.90;;;;;;5041975;28;20433;-62
2023/05/14 05:39:59;;;;;;;33.50;16.65;;;10.90;99.90;;;;;;5037976;28;20058;-63
2023/05/14 05:42:25;;;;;;;29.13;15.10;;;10.90;99.90;;;;;;5042500;28;20048;-63
2023/05/14 05:44:51;;;;;;;32.70;16.55;;;11.00;99.90;;;;;;5038579;28;20041;-63
2023/05/14 05:47:16;;;;;;;36.95;16.83;;;11.00;99.90;;;;;;5045297;28;20037;-63
2023/05/14 05:49:43;;;;;;;32.03;16.92;;;11.00;99.90;;;;;;5046801;28;20033;-61
2023/05/14 05:52:09;;;;;;;31.83;16.48;;;11.10;99.90;;;;;;5044015;28;20045;-63
2023/05/14 05:54:34;;;;;;;33.60;16.55;;;11.20;99.90;;;;;;5042646;28;20084;-63
2023/05/14 05:57:00;;;;;;;33.28;16.08;;;11.20;99.90;;;;;;5041694;28;20036;-62
2023/05/14 05:59:25;;;;;;;29.77;15.43;;;11.20;99.90;;;;;;5040661;28;20631;-62
2023/05/14 06:01:51;;;;;;;32.20;16.75;;;11.30;99.90;;;;;;5043878;28;20545;-63
2023/05/14 06:04:17;;;;;;;32.60;17.70;;;11.30;99.90;;;;;;5039446;28;20048;-64
2023/05/14 06:06:42;;;;;;;34.22;15.82;;;11.30;99.90;;;;;;5043152;28;20055;-62
2023/05/14 06:09:08;;;;;;;36.20;16.85;;;11.30;99.90;;;;;;5037515;28;20068;-63
2023/05/14 06:11:34;;;;;;;28.13;16.73;;;11.40;99.90;;;;;;5044167;28;20159;-62
2023/05/14 06:14:00;;;;;;;33.05;17.35;;;11.50;99.90;;;;;;5042404;28;20033;-62
2023/05/14 06:16:26;;;;;;;34.85;17.02;;;11.60;99.90;;;;;;5043961;28;20510;-63
2023/05/14 06:18:52;;;;;;;32.08;14.52;;;11.70;99.90;;;;;;5036557;28;20048;-62
2023/05/14 06:21:18;;;;;;;31.55;16.55;;;11.80;99.90;;;;;;5040525;28;22759;-62
2023/05/14 06:23:44;;;;;;;32.72;15.75;;;12.00;99.90;;;;;;5043449;28;20062;-63
2023/05/14 06:26:09;;;;;;;30.70;16.95;;;12.10;99.90;;;;;;5040124;28;20044;-61
2023/05/14 06:28:35;;;;;;;33.65;16.60;;;12.20;99.90;;;;;;5038343;28;20090;-62
2023/05/14 06:31:00;;;;;;;28.15;15.38;;;12.30;99.90;;;;;;5041192;28;20037;-62
2023/05/14 06:33:30;;;;;;;29.10;15.93;;;12.40;99.90;;;;;;5059087;28;20545;-63
2023/05/14 06:36:05;;;;;;;30.42;16.45;;;12.40;99.90;;;;;;5045149;28;20049;-62
2023/05/14 06:38:31;;;;;;;26.92;15.23;;;12.50;99.90;;;;;;5039763;28;20036;-62
2023/05/14 06:40:56;;;;;;;29.88;14.63;;;12.70;99.90;;;;;;5047697;28;20163;-62
2023/05/14 06:43:22;;;;;;;29.73;14.50;;;12.80;99.90;;;;;;5041442;28;20395;-62
2023/05/14 06:45:48;;;;;;;27.58;14.75;;;12.90;99.90;;;;;;5035955;28;20508;-63
2023/05/14 06:48:14;;;;;;;25.40;14.07;;;12.90;99.90;;;;;;5046868;28;20036;-61
2023/05/14 06:50:40;;;;;;;27.02;14.65;;;12.90;99.90;;;;;;5043836;28;20037;-62
2023/05/14 06:53:05;;;;;;;28.50;14.52;;;13.00;99.90;;;;;;5043878;28;20047;-62
2023/05/14 06:55:31;;;;;;;26.38;13.82;;;13.10;99.90;;;;;;5048547;28;20052;-62
2023/05/14 06:57:56;;;;;;;24.38;13.13;;;13.30;99.90;;;;;;5043037;28;20232;-63
2023/05/14 07:00:22;;;;;;;22.08;13.32;;;13.30;99.90;;;;;;5031488;28;20048;-62
2023/05/14 07:02:48;;;;;;;24.02;12.80;;;13.40;99.90;;;;;;5068970;28;20060;-61
2023/05/14 07:05:13;;;;;;;25.98;13.15;;;13.40;99.90;;;;;;5049647;28;20040;-61
2023/05/14 07:07:39;;;;;;;24.02;13.20;;;13.50;99.90;;;;;;5044750;28;20094;-61
2023/05/14 07:10:06;;;;;;;25.13;12.35;;;13.50;99.90;;;;;;5042240;28;20053;-62
2023/05/14 07:12:32;;;;;;;26.73;12.52;;;13.70;99.90;;;;;;5047925;28;20051;-62
2023/05/14 07:14:58;;;;;;;22.02;12.57;;;13.90;99.90;;;;;;5043698;28;20045;-62
2023/05/14 07:17:23;;;;;;;26.60;12.45;;;14.00;99.90;;;;;;5045783;28;20110;-61
2023/05/14 07:19:49;;;;;;;22.75;12.13;;;14.10;99.90;;;;;;5036990;28;20140;-62
2023/05/14 07:22:15;;;;;;;23.70;12.35;;;14.30;99.90;;;;;;5045842;28;20448;-62
2023/05/14 07:24:41;;;;;;;22.65;12.05;;;14.40;99.90;;;;;;5043142;28;20072;-62
2023/05/14 07:27:07;;;;;;;24.25;12.60;;;14.50;99.90;;;;;;5033708;28;20049;-62
2023/05/14 07:29:33;;;;;;;21.00;11.95;;;14.60;99.90;;;;;;5042055;28;20045;-62
2023/05/14 07:32:00;;;;;;;21.20;12.05;;;14.70;99.90;;;;;;5047920;28;20041;-62
2023/05/14 07:34:26;;;;;;;25.35;12.85;;;14.80;99.90;;;;;;5046253;28;20423;-62
2023/05/14 07:36:51;;;;;;;22.25;12.30;;;14.80;99.90;;;;;;5030304;28;20052;-62
2023/05/14 07:39:17;;;;;;;22.67;11.90;;;14.90;99.90;;;;;;5041779;28;20098;-62
2023/05/14 07:41:43;;;;;;;22.58;11.77;;;14.90;99.90;;;;;;5049453;28;20461;-61
2023/05/14 07:44:08;;;;;;;17.75;11.90;;;15.00;99.90;;;;;;5047883;28;20480;-62
2023/05/14 07:46:35;;;;;;;20.67;11.85;;;15.10;99.90;;;;;;5038441;28;20039;-62
2023/05/14 07:49:00;;;;;;;22.00;12.38;;;15.20;99.90;;;;;;5032192;28;20075;-62
2023/05/14 07:51:27;;;;;;;15.75;11.80;;;15.20;99.90;;;;;;5042912;28;20037;-62
2023/05/14 07:53:54;;;;;;;22.88;11.63;;;15.20;99.90;;;;;;5044650;28;20045;-62
2023/05/14 07:56:21;;;;;;;18.00;11.32;;;15.20;99.90;;;;;;5033785;28;20069;-62
2023/05/14 07:58:46;;;;;;;19.58;11.25;;;15.30;99.90;;;;;;5038717;28;20041;-62
2023/05/14 08:01:12;;;;;;;21.48;11.13;;;15.30;99.90;;;;;;5048180;28;20044;-62
2023/05/14 08:03:38;;;;;;;22.38;11.95;;;15.30;99.90;;;;;;5042021;28;20042;-62
2023/05/14 08:06:04;;;;;;;19.88;11.50;;;15.30;99.90;;;;;;5047557;28;20049;-62
2023/05/14 08:08:29;;;;;;;22.42;11.55;;;15.40;99.90;;;;;;5041946;28;20559;-62
2023/05/14 08:10:55;;;;;;;18.23;11.43;;;15.60;99.90;;;;;;5039488;28;20392;-62
2023/05/14 08:13:21;;;;;;;19.83;10.65;;;15.70;99.90;;;;;;5034614;28;20179;-63
2023/05/14 08:15:46;;;;;;;17.67;10.35;;;15.80;99.90;;;;;;5047237;28;20074;-62
2023/05/14 08:18:12;;;;;;;21.20;10.93;;;15.80;99.90;;;;;;5047282;28;20044;-62
2023/05/14 08:20:38;;;;;;;18.50;11.13;;;15.80;99.90;;;;;;5046311;28;20451;-62
2023/05/14 08:23:03;;;;;;;18.80;11.10;;;15.90;99.90;;;;;;5033565;28;20063;-62
2023/05/14 08:25:29;;;;;;;26.85;10.93;;;16.10;99.90;;;;;;5046949;28;20045;-62
2023/05/14 08:27:54;;;;;;;21.10;10.68;;;16.10;99.90;;;;;;5042149;28;20528;-62
2023/05/14 08:30:21;;;;;;;19.20;10.35;;;16.30;99.90;;;;;;5042291;28;20048;-62
2023/05/14 08:32:47;;;;;;;14.02;9.82;;;16.50;99.90;;;;;;5039171;28;20112;-62
2023/05/14 08:35:12;;;;;;;19.08;10.60;;;16.70;99.90;;;;;;5046624;28;20167;-62
2023/05/14 08:37:38;;;;;;;18.95;10.52;;;16.80;99.90;;;;;;5077731;28;20071;-63
2023/05/14 08:40:04;;;;;;;17.02;10.10;;;17.00;99.90;;;;;;5046325;28;20131;-63
2023/05/14 08:42:30;;;;;;;13.88;10.60;;;17.10;99.90;;;;;;5037999;28;20056;-62
2023/05/14 08:45:06;;;;;;;16.73;9.80;;;17.20;99.90;;;;;;5033126;28;20053;-63
2023/05/14 08:47:33;;;;;;;15.52;9.77;;;17.40;99.90;;;;;;5047531;28;20045;-62
2023/05/14 08:50:05;;;;;;;18.75;9.93;;;17.40;99.90;;;;;;5048258;28;20405;-62
2023/05/14 08:52:31;;;;;;;21.52;9.90;;;17.40;99.90;;;;;;5029865;28;20045;-62
2023/05/14 08:54:59;;;;;;;16.38;9.85;;;17.50;99.90;;;;;;5046281;28;20547;-63
2023/05/14 08:57:25;;;;;;;17.02;9.98;;;17.60;99.90;;;;;;5075231;28;20385;-63
2023/05/14 08:59:52;;;;;;;17.25;10.13;;;17.60;99.90;;;;;;5048100;28;20106;-64
2023/05/14 09:02:23;;;;;;;18.63;10.38;;;17.70;99.90;;;;;;5038534;28;20043;-64
2023/05/14 09:04:53;;;;;;;18.40;9.88;;;17.80;99.90;;;;;;5048971;28;20059;-63
2023/05/14 09:07:19;;;;;;;15.35;10.10;;;18.00;99.90;;;;;;5046884;28;20048;-63
2023/05/14 09:09:46;;;;;;;17.55;9.65;;;18.00;99.90;;;;;;5049672;28;20419;-63
2023/05/14 09:12:11;;;;;;;16.85;9.90;;;18.20;99.90;;;;;;5050531;28;20037;-63
2023/05/14 09:14:37;;;;;;;16.50;9.73;;;18.30;99.90;;;;;;5042284;28;20555;-63
2023/05/14 09:17:02;;;;;;;16.50;9.80;;;18.40;99.90;;;;;;5052770;28;20502;-63
2023/05/14 09:19:28;;;;;;;17.08;8.95;;;18.50;99.90;;;;;;5082341;28;20094;-63
2023/05/14 09:21:57;;;;;;;14.63;9.02;;;18.70;99.90;;;;;;5043942;28;20714;-63
2023/05/14 09:24:25;;;;;;;14.75;8.75;;;18.70;99.90;;;;;;5039078;28;20099;-62
2023/05/14 09:26:57;;;;;;;12.65;8.70;;;18.70;99.90;;;;;;5040649;28;20128;-63
2023/05/14 09:29:27;;;;;;;12.55;8.40;;;18.80;99.90;;;;;;5048092;28;20051;-62
2023/05/14 09:31:53;;;;;;;13.32;8.60;;;18.80;99.90;;;;;;5045370;28;20038;-62
2023/05/14 09:34:32;;;;;;;12.85;8.38;;;18.90;99.90;;;;;;5042352;28;20440;-63
2023/05/14 09:37:06;;;;;;;12.88;8.40;;;19.10;99.90;;;;;;5037771;28;20468;-63
2023/05/14 09:39:33;;;;;;;13.95;8.75;;;19.20;99.90;;;;;;5074767;28;20048;-63
2023/05/14 09:41:59;;;;;;;16.60;8.43;;;19.30;99.90;;;;;;5041359;28;20068;-63
2023/05/14 09:44:25;;;;;;;12.90;8.73;;;19.50;99.90;;;;;;5041033;28;20107;-63
2023/05/14 09:46:52;;;;;;;11.18;7.78;;;19.60;99.90;;;;;;5048504;28;20049;-63
2023/05/14 09:49:18;;;;;;;13.95;8.00;;;19.60;99.90;;;;;;5046352;28;20081;-63
2023/05/14 09:51:44;;;;;;;12.88;8.38;;;19.80;99.90;;;;;;5031181;28;20041;-64
2023/05/14 09:54:09;;;;;;;13.02;8.02;;;19.90;99.90;;;;;;5065419;28;20051;-63
2023/05/14 09:56:35;;;;;;;12.60;7.55;;;19.90;99.90;;;;;;5032119;28;20021;-64
2023/05/14 09:59:02;;;;;;;12.02;7.55;;;19.90;99.90;;;;;;5079913;28;20040;-63
2023/05/14 10:01:29;;;;;;;12.45;6.90;;;19.90;99.90;;;;;;5047940;28;20119;-63
2023/05/14 10:03:55;;;;;;;12.07;7.07;;;19.80;99.90;;;;;;5044506;28;20032;-64
2023/05/14 10:06:31;;;;;;;11.52;7.55;;;19.80;99.90;;;;;;5045989;28;20046;-62
2023/05/14 10:09:01;;;;;;;11.35;7.70;;;19.80;99.90;;;;;;5043102;28;20488;-63
2023/05/14 10:11:31;;;;;;;10.15;6.90;;;19.90;99.90;;;;;;5051648;28;20036;-63
2023/05/14 10:14:03;;;;;;;14.40;6.65;;;20.00;99.90;;;;;;5045828;28;20029;-63
2023/05/14 10:16:42;;;;;;;10.93;6.80;;;20.00;99.90;;;;;;5082538;28;20056;-63
2023/05/14 10:19:10;;;;;;;11.13;6.57;;;20.10;99.90;;;;;;5046903;28;20048;-63
2023/05/14 10:21:37;;;;;;;12.82;6.80;;;20.30;99.90;;;;;;5084843;28;20124;-63
2023/05/14 10:24:04;;;;;;;11.35;7.10;;;20.30;99.90;;;;;;5047760;28;20045;-63
2023/05/14 10:26:31;;;;;;;11.52;7.28;;;20.40;99.90;;;;;;5081837;28;20047;-63
2023/05/14 10:28:58;;;;;;;11.48;7.07;;;20.50;99.90;;;;;;5047496;28;20102;-64
2023/05/14 10:31:47;;;;;;;11.32;7.40;;;20.60;99.90;;;;;;5045174;28;20084;-63
2023/05/14 10:34:33;;;;;;;9.98;6.68;;;20.60;99.90;;;;;;5031717;28;20099;-63
2023/05/14 10:37:01;;;;;;;11.80;6.50;;;20.70;99.90;;;;;;5031364;28;20645;-63
2023/05/14 10:39:49;;;;;;;11.55;6.93;;;20.70;99.90;;;;;;5040818;28;20044;-63
2023/05/14 10:42:24;;;;;;;12.18;6.53;;;20.80;99.90;;;;;;5033717;28;20571;-63
2023/05/14 10:45:00;;;;;;;11.00;6.05;;;20.90;99.90;;;;;;5065767;28;20052;-64
2023/05/14 10:47:30;;;;;;;12.25;6.55;;;21.00;99.90;;;;;;5042826;28;20033;-64
2023/05/14 10:49:57;;;;;;;13.38;6.43;;;21.20;99.90;;;;;;5049386;28;20064;-63
2023/05/14 10:52:24;;;;;;;9.35;6.53;;;21.30;99.90;;;;;;5049991;28;20396;-64
2023/05/14 10:55:01;;;;;;;8.88;5.90;;;21.20;99.90;;;;;;5051178;28;20052;-63
2023/05/14 10:57:28;;;;;;;8.48;5.90;;;21.30;99.90;;;;;;5046358;28;20404;-63
2023/05/14 10:59:56;;;;;;;9.30;6.00;;;21.30;99.90;;;;;;5043691;28;20091;-63
2023/05/14 11:02:26;;;;;;;14.18;6.05;;;21.40;99.90;;;;;;5043080;28;20032;-63
2023/05/14 11:05:15;;;;;;;9.82;5.60;;;21.40;99.90;;;;;;5040487;28;20128;-64
2023/05/14 11:07:48;;;;;;;9.63;5.22;;;21.40;99.90;;;;;;5036935;28;20044;-65
2023/05/14 11:10:15;;;;;;;8.93;4.60;;;21.40;99.90;;;;;;5050240;28;20117;-64
2023/05/14 11:12:46;;;;;;;8.63;4.95;;;21.50;99.90;;;;;;5050702;28;20107;-63
2023/05/14 11:15:17;;;;;;;8.48;5.03;;;21.50;99.90;;;;;;5049341;28;20040;-63
2023/05/14 11:17:44;;;;;;;9.20;5.90;;;21.40;99.90;;;;;;5042872;28;20033;-63
2023/05/14 11:20:10;;;;;;;8.30;5.05;;;21.30;99.90;;;;;;5081852;28;20420;-64
2023/05/14 11:22:39;;;;;;;10.65;5.22;;;21.40;99.90;;;;;;5046827;28;20041;-64
2023/05/14 11:25:06;;;;;;;7.68;5.40;;;21.50;99.90;;;;;;5049193;28;20128;-63
2023/05/14 11:27:34;;;;;;;7.93;5.60;;;21.60;99.90;;;;;;5081375;28;20045;-64
2023/05/14 11:30:00;;;;;;;7.10;4.55;;;21.70;99.90;;;;;;5043953;28;20045;-64
2023/05/14 11:32:26;;;;;;;7.13;4.85;;;21.90;99.90;;;;;;5045924;28;20089;-65
2023/05/14 11:34:51;;;;;;;7.07;5.13;;;21.90;99.90;;;;;;5032128;28;20081;-63
2023/05/14 11:37:17;;;;;;;6.88;4.35;;;22.00;99.90;;;;;;5047345;28;21341;-64
2023/05/14 11:39:54;;;;;;;7.15;4.25;;;21.90;99.90;;;;;;5079698;28;20044;-64
2023/05/14 11:42:21;;;;;;;9.88;4.55;;;21.90;99.90;;;;;;5047889;28;20080;-64
2023/05/14 11:44:48;;;;;;;8.32;4.70;;;21.90;99.90;;;;;;5042627;28;20073;-64
2023/05/14 11:47:14;;;;;;;8.93;4.72;;;21.90;99.90;;;;;;5043533;28;20040;-64
2023/05/14 11:49:40;;;;;;;7.05;4.75;;;21.90;99.90;;;;;;5039243;28;21494;-64
2023/05/14 11:52:13;;;;;;;7.90;5.65;;;21.90;99.90;;;;;;5038600;28;20087;-64
2023/05/14 11:54:41;;;;;;;8.80;5.78;;;22.00;99.90;;;;;;5045337;28;20052;-64
2023/05/14 11:57:12;;;;;;;12.85;5.28;;;21.90;99.90;;;;;;5046420;28;20055;-63
2023/05/14 11:59:38;;;;;;;12.82;5.80;;;21.90;99.90;;;;;;5031265;28;20037;-63
2023/05/14 12:02:07;;;;;;;8.43;5.30;;;21.90;99.90;;;;;;5041726;28;20043;-63
2023/05/14 12:04:32;;;;;;;13.50;6.60;;;21.90;99.90;;;;;;5045814;28;20101;-63
2023/05/14 12:06:59;;;;;;;11.60;6.03;;;22.00;99.90;;;;;;5048682;28;20072;-64
2023/05/14 12:09:25;;;;;;;8.00;5.55;;;21.90;99.90;;;;;;5044499;28;20075;-63
2023/05/14 12:11:51;;;;;;;7.07;5.38;;;21.80;99.90;;;;;;5049033;28;20040;-63
2023/05/14 12:14:23;;;;;;;9.02;5.75;;;21.80;99.90;;;;;;5044921;28;20037;-63
2023/05/14 12:16:50;;;;;;;7.80;5.85;;;21.80;99.90;;;;;;5050087;28;20037;-63
2023/05/14 12:19:17;;;;;;;9.43;5.50;;;21.70;99.90;;;;;;5044180;28;20468;-63
2023/05/14 12:21:44;;;;;;;11.32;5.93;;;21.70;99.90;;;;;;5047575;28;20037;-64
2023/05/14 12:24:16;;;;;;;7.03;5.43;;;21.70;99.90;;;;;;5045760;28;20053;-64
2023/05/14 12:26:49;;;;;;;10.65;5.75;;;21.60;99.90;;;;;;5046719;28;20033;-64
2023/05/14 12:29:15;;;;;;;9.90;5.50;;;21.70;99.90;;;;;;5040067;28;20045;-63
2023/05/14 12:31:46;;;;;;;8.05;5.50;;;21.80;99.90;;;;;;5081267;28;20037;-63